sensor_id;sensor_type;location;lat;lon;timestamp;P1;durP1;ratioP1;P2;durP2;ratioP2
84897;SDS011;75162;42.120;21.734;2024-02-21T00:00:56;9.73;;;6.65;;
84897;SDS011;75162;42.120;21.734;2024-02-21T00:03:22;12.45;;;7.47;;
84897;SDS011;75162;42.120;21.734;2024-02-21T00:05:48;9.32;;;6.30;;
84897;SDS011;75162;42.120;21.734;2024-02-21T00:08:14;9.45;;;6.13;;
84897;SDS011;75162;42.120;21.734;2024-02-21T00:10:41;13.05;;;6.53;;
84897;SDS011;75162;42.120;21.734;2024-02-21T00:13:07;12.50;;;6.88;;
84897;SDS011;75162;42.120;21.734;2024-02-21T00:15:33;13.35;;;8.18;;
84897;SDS011;75162;42.120;21.734;2024-02-21T00:17:59;12.35;;;7.40;;
84897;SDS011;75162;42.120;21.734;2024-02-21T00:20:25;10.73;;;6.82;;
84897;SDS011;75162;42.120;21.734;2024-02-21T00:22:51;11.30;;;6.82;;
84897;SDS011;75162;42.120;21.734;2024-02-21T00:25:17;11.73;;;6.30;;
84897;SDS011;75162;42.120;21.734;2024-02-21T00:27:43;9.80;;;6.32;;
84897;SDS011;75162;42.120;21.734;2024-02-21T00:30:10;11.93;;;6.80;;
84897;SDS011;75162;42.120;21.734;2024-02-21T00:32:36;8.05;;;5.13;;
84897;SDS011;75162;42.120;21.734;2024-02-21T00:35:02;10.30;;;6.40;;
84897;SDS011;75162;42.120;21.734;2024-02-21T00:37:28;8.98;;;5.80;;
84897;SDS011;75162;42.120;21.734;2024-02-21T00:39:55;16.00;;;7.78;;
84897;SDS011;75162;42.120;21.734;2024-02-21T00:42:21;16.00;;;7.45;;
84897;SDS011;75162;42.120;21.734;2024-02-21T00:44:47;16.00;;;8.15;;
84897;SDS011;75162;42.120;21.734;2024-02-21T00:47:13;18.23;;;8.15;;
84897;SDS011;75162;42.120;21.734;2024-02-21T00:49:39;18.10;;;9.27;;
84897;SDS011;75162;42.120;21.734;2024-02-21T00:52:05;16.95;;;8.30;;
84897;SDS011;75162;42.120;21.734;2024-02-21T00:54:31;17.40;;;8.57;;
84897;SDS011;75162;42.120;21.734;2024-02-21T00:56:58;18.33;;;8.05;;
84897;SDS011;75162;42.120;21.734;2024-02-21T00:59:24;17.55;;;8.55;;
84897;SDS011;75162;42.120;21.734;2024-02-21T01:01:50;16.77;;;8.23;;
84897;SDS011;75162;42.120;21.734;2024-02-21T01:04:16;13.23;;;7.05;;
84897;SDS011;75162;42.120;21.734;2024-02-21T01:06:42;13.43;;;8.02;;
84897;SDS011;75162;42.120;21.734;2024-02-21T01:09:09;15.80;;;8.57;;
84897;SDS011;75162;42.120;21.734;2024-02-21T01:11:35;13.52;;;7.20;;
84897;SDS011;75162;42.120;21.734;2024-02-21T01:14:01;12.43;;;7.25;;
84897;SDS011;75162;42.120;21.734;2024-02-21T01:16:28;12.70;;;7.40;;
84897;SDS011;75162;42.120;21.734;2024-02-21T01:18:54;13.13;;;8.07;;
84897;SDS011;75162;42.120;21.734;2024-02-21T01:21:20;13.02;;;7.55;;
84897;SDS011;75162;42.120;21.734;2024-02-21T01:23:46;12.73;;;7.45;;
84897;SDS011;75162;42.120;21.734;2024-02-21T01:26:13;11.70;;;6.88;;
84897;SDS011;75162;42.120;21.734;2024-02-21T01:28:40;13.95;;;6.68;;
84897;SDS011;75162;42.120;21.734;2024-02-21T01:31:06;10.80;;;6.25;;
84897;SDS011;75162;42.120;21.734;2024-02-21T01:33:33;13.70;;;7.47;;
84897;SDS011;75162;42.120;21.734;2024-02-21T01:36:04;11.75;;;7.13;;
84897;SDS011;75162;42.120;21.734;2024-02-21T01:38:33;13.57;;;6.88;;
84897;SDS011;75162;42.120;21.734;2024-02-21T01:40:59;11.35;;;6.47;;
84897;SDS011;75162;42.120;21.734;2024-02-21T01:43:25;14.88;;;7.25;;
84897;SDS011;75162;42.120;21.734;2024-02-21T01:45:52;10.27;;;6.40;;
84897;SDS011;75162;42.120;21.734;2024-02-21T01:48:19;11.30;;;6.85;;
84897;SDS011;75162;42.120;21.734;2024-02-21T01:50:45;14.30;;;6.95;;
84897;SDS011;75162;42.120;21.734;2024-02-21T01:53:34;10.98;;;6.90;;
84897;SDS011;75162;42.120;21.734;2024-02-21T01:55:59;14.55;;;6.57;;
84897;SDS011;75162;42.120;21.734;2024-02-21T01:58:25;13.65;;;7.32;;
84897;SDS011;75162;42.120;21.734;2024-02-21T02:00:51;10.45;;;6.07;;
84897;SDS011;75162;42.120;21.734;2024-02-21T02:03:17;10.75;;;6.65;;
84897;SDS011;75162;42.120;21.734;2024-02-21T02:05:44;13.68;;;8.68;;
84897;SDS011;75162;42.120;21.734;2024-02-21T02:08:12;13.82;;;8.65;;
84897;SDS011;75162;42.120;21.734;2024-02-21T02:10:38;19.98;;;10.55;;
84897;SDS011;75162;42.120;21.734;2024-02-21T02:13:05;10.07;;;6.30;;
84897;SDS011;75162;42.120;21.734;2024-02-21T02:15:43;9.57;;;6.05;;
84897;SDS011;75162;42.120;21.734;2024-02-21T02:18:10;10.30;;;6.38;;
84897;SDS011;75162;42.120;21.734;2024-02-21T02:20:37;11.15;;;6.47;;
84897;SDS011;75162;42.120;21.734;2024-02-21T02:23:06;9.00;;;5.45;;
84897;SDS011;75162;42.120;21.734;2024-02-21T02:25:33;9.50;;;6.00;;
84897;SDS011;75162;42.120;21.734;2024-02-21T02:27:59;9.52;;;5.95;;
84897;SDS011;75162;42.120;21.734;2024-02-21T02:30:26;12.90;;;7.25;;
84897;SDS011;75162;42.120;21.734;2024-02-21T02:32:52;11.82;;;7.00;;
84897;SDS011;75162;42.120;21.734;2024-02-21T02:35:18;12.27;;;7.07;;
84897;SDS011;75162;42.120;21.734;2024-02-21T02:37:48;11.88;;;7.30;;
84897;SDS011;75162;42.120;21.734;2024-02-21T02:40:14;14.25;;;6.75;;
84897;SDS011;75162;42.120;21.734;2024-02-21T02:42:40;12.32;;;7.78;;
84897;SDS011;75162;42.120;21.734;2024-02-21T02:45:07;12.73;;;6.82;;
84897;SDS011;75162;42.120;21.734;2024-02-21T02:47:33;12.45;;;7.80;;
84897;SDS011;75162;42.120;21.734;2024-02-21T02:49:59;13.73;;;7.35;;
84897;SDS011;75162;42.120;21.734;2024-02-21T02:52:26;11.88;;;6.95;;
84897;SDS011;75162;42.120;21.734;2024-02-21T02:54:52;13.35;;;7.32;;
84897;SDS011;75162;42.120;21.734;2024-02-21T02:57:21;12.65;;;7.97;;
84897;SDS011;75162;42.120;21.734;2024-02-21T02:59:50;17.10;;;8.20;;
84897;SDS011;75162;42.120;21.734;2024-02-21T03:02:17;11.35;;;7.78;;
84897;SDS011;75162;42.120;21.734;2024-02-21T03:04:43;11.50;;;6.80;;
84897;SDS011;75162;42.120;21.734;2024-02-21T03:07:09;13.35;;;6.82;;
84897;SDS011;75162;42.120;21.734;2024-02-21T03:09:39;12.88;;;7.18;;
84897;SDS011;75162;42.120;21.734;2024-02-21T03:12:05;11.85;;;7.45;;
84897;SDS011;75162;42.120;21.734;2024-02-21T03:14:32;12.68;;;7.13;;
84897;SDS011;75162;42.120;21.734;2024-02-21T03:16:58;13.68;;;7.57;;
84897;SDS011;75162;42.120;21.734;2024-02-21T03:19:24;14.35;;;7.93;;
84897;SDS011;75162;42.120;21.734;2024-02-21T03:21:51;13.30;;;7.82;;
84897;SDS011;75162;42.120;21.734;2024-02-21T03:24:18;13.25;;;7.85;;
84897;SDS011;75162;42.120;21.734;2024-02-21T03:26:44;13.68;;;7.60;;
84897;SDS011;75162;42.120;21.734;2024-02-21T03:29:14;14.32;;;8.10;;
84897;SDS011;75162;42.120;21.734;2024-02-21T03:31:41;17.75;;;9.38;;
84897;SDS011;75162;42.120;21.734;2024-02-21T03:34:07;18.25;;;10.23;;
84897;SDS011;75162;42.120;21.734;2024-02-21T03:36:34;18.73;;;10.43;;
84897;SDS011;75162;42.120;21.734;2024-02-21T03:39:00;20.65;;;10.85;;
84897;SDS011;75162;42.120;21.734;2024-02-21T03:41:26;19.58;;;10.35;;
84897;SDS011;75162;42.120;21.734;2024-02-21T03:43:52;17.38;;;9.98;;
84897;SDS011;75162;42.120;21.734;2024-02-21T03:46:18;20.27;;;10.13;;
84897;SDS011;75162;42.120;21.734;2024-02-21T03:48:44;21.33;;;10.98;;
84897;SDS011;75162;42.120;21.734;2024-02-21T03:51:11;21.23;;;9.18;;
84897;SDS011;75162;42.120;21.734;2024-02-21T03:53:37;22.90;;;10.65;;
84897;SDS011;75162;42.120;21.734;2024-02-21T03:56:03;21.13;;;11.38;;
84897;SDS011;75162;42.120;21.734;2024-02-21T03:58:30;20.75;;;11.23;;
84897;SDS011;75162;42.120;21.734;2024-02-21T04:00:56;19.92;;;10.52;;
84897;SDS011;75162;42.120;21.734;2024-02-21T04:03:22;20.55;;;10.13;;
84897;SDS011;75162;42.120;21.734;2024-02-21T04:05:48;18.02;;;10.27;;
84897;SDS011;75162;42.120;21.734;2024-02-21T04:08:15;20.33;;;10.60;;
84897;SDS011;75162;42.120;21.734;2024-02-21T04:10:42;29.73;;;10.65;;
84897;SDS011;75162;42.120;21.734;2024-02-21T04:13:08;20.63;;;10.88;;
84897;SDS011;75162;42.120;21.734;2024-02-21T04:15:34;21.65;;;11.05;;
84897;SDS011;75162;42.120;21.734;2024-02-21T04:18:00;25.77;;;10.70;;
84897;SDS011;75162;42.120;21.734;2024-02-21T04:20:26;21.20;;;10.45;;
84897;SDS011;75162;42.120;21.734;2024-02-21T04:22:52;21.02;;;10.48;;
84897;SDS011;75162;42.120;21.734;2024-02-21T04:25:19;22.30;;;11.25;;
84897;SDS011;75162;42.120;21.734;2024-02-21T04:27:45;23.40;;;13.27;;
84897;SDS011;75162;42.120;21.734;2024-02-21T04:30:11;25.73;;;12.25;;
84897;SDS011;75162;42.120;21.734;2024-02-21T04:32:38;22.73;;;13.80;;
84897;SDS011;75162;42.120;21.734;2024-02-21T04:35:04;21.67;;;12.48;;
84897;SDS011;75162;42.120;21.734;2024-02-21T04:37:32;25.58;;;13.30;;
84897;SDS011;75162;42.120;21.734;2024-02-21T04:39:58;22.50;;;12.75;;
84897;SDS011;75162;42.120;21.734;2024-02-21T04:42:24;22.23;;;12.40;;
84897;SDS011;75162;42.120;21.734;2024-02-21T04:44:50;25.48;;;12.50;;
84897;SDS011;75162;42.120;21.734;2024-02-21T04:47:16;23.23;;;12.93;;
84897;SDS011;75162;42.120;21.734;2024-02-21T04:49:42;24.08;;;13.13;;
84897;SDS011;75162;42.120;21.734;2024-02-21T04:52:08;25.17;;;13.65;;
84897;SDS011;75162;42.120;21.734;2024-02-21T04:54:35;28.08;;;15.15;;
84897;SDS011;75162;42.120;21.734;2024-02-21T04:57:01;26.90;;;14.18;;
84897;SDS011;75162;42.120;21.734;2024-02-21T04:59:27;22.35;;;13.25;;
84897;SDS011;75162;42.120;21.734;2024-02-21T05:01:54;24.25;;;13.57;;
84897;SDS011;75162;42.120;21.734;2024-02-21T05:04:20;26.38;;;13.18;;
84897;SDS011;75162;42.120;21.734;2024-02-21T05:06:46;27.58;;;15.43;;
84897;SDS011;75162;42.120;21.734;2024-02-21T05:09:12;28.02;;;14.73;;
84897;SDS011;75162;42.120;21.734;2024-02-21T05:11:38;30.02;;;16.17;;
84897;SDS011;75162;42.120;21.734;2024-02-21T05:14:05;36.25;;;18.75;;
84897;SDS011;75162;42.120;21.734;2024-02-21T05:16:31;24.33;;;12.55;;
84897;SDS011;75162;42.120;21.734;2024-02-21T05:18:58;25.40;;;13.07;;
84897;SDS011;75162;42.120;21.734;2024-02-21T05:21:24;28.20;;;13.18;;
84897;SDS011;75162;42.120;21.734;2024-02-21T05:23:50;33.65;;;13.27;;
84897;SDS011;75162;42.120;21.734;2024-02-21T05:26:20;22.52;;;12.73;;
84897;SDS011;75162;42.120;21.734;2024-02-21T05:28:47;21.15;;;11.85;;
84897;SDS011;75162;42.120;21.734;2024-02-21T05:31:14;22.75;;;12.13;;
84897;SDS011;75162;42.120;21.734;2024-02-21T05:33:41;25.88;;;13.32;;
84897;SDS011;75162;42.120;21.734;2024-02-21T05:36:07;24.88;;;14.07;;
84897;SDS011;75162;42.120;21.734;2024-02-21T05:38:34;29.23;;;12.90;;
84897;SDS011;75162;42.120;21.734;2024-02-21T05:41:00;26.05;;;13.32;;
84897;SDS011;75162;42.120;21.734;2024-02-21T05:43:26;26.83;;;13.27;;
84897;SDS011;75162;42.120;21.734;2024-02-21T05:45:53;30.17;;;13.25;;
84897;SDS011;75162;42.120;21.734;2024-02-21T05:48:19;31.75;;;15.43;;
84897;SDS011;75162;42.120;21.734;2024-02-21T05:50:46;26.25;;;13.30;;
84897;SDS011;75162;42.120;21.734;2024-02-21T05:53:12;24.27;;;12.30;;
84897;SDS011;75162;42.120;21.734;2024-02-21T05:55:38;25.98;;;12.05;;
84897;SDS011;75162;42.120;21.734;2024-02-21T05:58:05;23.58;;;12.57;;
84897;SDS011;75162;42.120;21.734;2024-02-21T06:00:31;31.35;;;13.57;;
84897;SDS011;75162;42.120;21.734;2024-02-21T06:02:57;28.35;;;13.07;;
84897;SDS011;75162;42.120;21.734;2024-02-21T06:05:24;38.40;;;15.75;;
84897;SDS011;75162;42.120;21.734;2024-02-21T06:07:50;32.15;;;14.60;;
84897;SDS011;75162;42.120;21.734;2024-02-21T06:10:16;29.63;;;14.75;;
84897;SDS011;75162;42.120;21.734;2024-02-21T06:12:42;29.50;;;15.75;;
84897;SDS011;75162;42.120;21.734;2024-02-21T06:15:08;30.38;;;16.17;;
84897;SDS011;75162;42.120;21.734;2024-02-21T06:17:35;35.90;;;18.60;;
84897;SDS011;75162;42.120;21.734;2024-02-21T06:20:01;30.40;;;17.20;;
84897;SDS011;75162;42.120;21.734;2024-02-21T06:22:27;24.50;;;14.45;;
84897;SDS011;75162;42.120;21.734;2024-02-21T06:24:53;23.88;;;12.88;;
84897;SDS011;75162;42.120;21.734;2024-02-21T06:27:20;23.10;;;13.32;;
84897;SDS011;75162;42.120;21.734;2024-02-21T06:29:46;31.05;;;14.63;;
84897;SDS011;75162;42.120;21.734;2024-02-21T06:32:12;23.70;;;12.13;;
84897;SDS011;75162;42.120;21.734;2024-02-21T06:34:38;25.00;;;12.13;;
84897;SDS011;75162;42.120;21.734;2024-02-21T06:37:04;22.23;;;11.95;;
84897;SDS011;75162;42.120;21.734;2024-02-21T06:39:31;18.55;;;11.77;;
84897;SDS011;75162;42.120;21.734;2024-02-21T06:41:57;18.48;;;10.48;;
84897;SDS011;75162;42.120;21.734;2024-02-21T06:44:23;24.55;;;11.45;;
84897;SDS011;75162;42.120;21.734;2024-02-21T06:46:49;23.88;;;13.73;;
84897;SDS011;75162;42.120;21.734;2024-02-21T06:49:15;20.40;;;13.50;;
84897;SDS011;75162;42.120;21.734;2024-02-21T06:51:42;17.60;;;11.98;;
84897;SDS011;75162;42.120;21.734;2024-02-21T06:54:08;25.08;;;13.23;;
84897;SDS011;75162;42.120;21.734;2024-02-21T06:56:35;19.73;;;12.38;;
84897;SDS011;75162;42.120;21.734;2024-02-21T06:59:01;30.40;;;16.85;;
84897;SDS011;75162;42.120;21.734;2024-02-21T07:01:28;39.65;;;20.73;;
84897;SDS011;75162;42.120;21.734;2024-02-21T07:03:54;21.27;;;13.75;;
84897;SDS011;75162;42.120;21.734;2024-02-21T07:06:21;23.90;;;14.52;;
84897;SDS011;75162;42.120;21.734;2024-02-21T07:08:47;19.58;;;12.45;;
84897;SDS011;75162;42.120;21.734;2024-02-21T07:11:13;25.92;;;15.30;;
84897;SDS011;75162;42.120;21.734;2024-02-21T07:13:40;25.80;;;13.55;;
84897;SDS011;75162;42.120;21.734;2024-02-21T07:16:06;21.08;;;12.27;;
84897;SDS011;75162;42.120;21.734;2024-02-21T07:18:33;22.08;;;11.68;;
84897;SDS011;75162;42.120;21.734;2024-02-21T07:20:59;22.90;;;12.85;;
84897;SDS011;75162;42.120;21.734;2024-02-21T07:23:25;21.27;;;12.43;;
84897;SDS011;75162;42.120;21.734;2024-02-21T07:25:51;22.48;;;12.45;;
84897;SDS011;75162;42.120;21.734;2024-02-21T07:28:17;26.20;;;14.13;;
84897;SDS011;75162;42.120;21.734;2024-02-21T07:30:43;23.55;;;13.70;;
84897;SDS011;75162;42.120;21.734;2024-02-21T07:33:10;19.77;;;14.02;;
84897;SDS011;75162;42.120;21.734;2024-02-21T07:35:36;28.40;;;15.45;;
84897;SDS011;75162;42.120;21.734;2024-02-21T07:38:03;25.73;;;15.38;;
84897;SDS011;75162;42.120;21.734;2024-02-21T07:40:30;27.02;;;15.73;;
84897;SDS011;75162;42.120;21.734;2024-02-21T07:42:56;23.48;;;15.23;;
84897;SDS011;75162;42.120;21.734;2024-02-21T07:45:22;25.70;;;15.45;;
84897;SDS011;75162;42.120;21.734;2024-02-21T07:47:49;25.02;;;16.25;;
84897;SDS011;75162;42.120;21.734;2024-02-21T07:50:15;30.75;;;16.48;;
84897;SDS011;75162;42.120;21.734;2024-02-21T07:52:42;25.63;;;15.15;;
84897;SDS011;75162;42.120;21.734;2024-02-21T07:55:08;26.20;;;16.38;;
84897;SDS011;75162;42.120;21.734;2024-02-21T07:57:35;26.58;;;15.38;;
84897;SDS011;75162;42.120;21.734;2024-02-21T08:00:02;25.13;;;15.93;;
84897;SDS011;75162;42.120;21.734;2024-02-21T08:02:34;21.58;;;14.35;;
84897;SDS011;75162;42.120;21.734;2024-02-21T08:05:01;41.75;;;16.63;;
84897;SDS011;75162;42.120;21.734;2024-02-21T08:07:28;24.10;;;15.77;;
84897;SDS011;75162;42.120;21.734;2024-02-21T08:09:56;25.85;;;16.60;;
84897;SDS011;75162;42.120;21.734;2024-02-21T08:12:22;25.35;;;16.15;;
84897;SDS011;75162;42.120;21.734;2024-02-21T08:14:48;28.33;;;17.33;;
84897;SDS011;75162;42.120;21.734;2024-02-21T08:17:14;24.70;;;16.88;;
84897;SDS011;75162;42.120;21.734;2024-02-21T08:19:40;25.90;;;15.35;;
84897;SDS011;75162;42.120;21.734;2024-02-21T08:22:06;23.85;;;14.32;;
84897;SDS011;75162;42.120;21.734;2024-02-21T08:24:33;24.13;;;15.05;;
84897;SDS011;75162;42.120;21.734;2024-02-21T08:26:59;23.38;;;14.70;;
84897;SDS011;75162;42.120;21.734;2024-02-21T08:29:25;23.42;;;14.02;;
84897;SDS011;75162;42.120;21.734;2024-02-21T08:31:53;20.02;;;12.98;;
84897;SDS011;75162;42.120;21.734;2024-02-21T08:34:19;24.23;;;14.80;;
84897;SDS011;75162;42.120;21.734;2024-02-21T08:36:45;24.85;;;14.98;;
84897;SDS011;75162;42.120;21.734;2024-02-21T08:39:12;21.55;;;13.18;;
84897;SDS011;75162;42.120;21.734;2024-02-21T08:41:41;28.83;;;13.60;;
84897;SDS011;75162;42.120;21.734;2024-02-21T08:44:07;18.95;;;11.88;;
84897;SDS011;75162;42.120;21.734;2024-02-21T08:46:34;21.10;;;12.32;;
84897;SDS011;75162;42.120;21.734;2024-02-21T08:49:03;20.33;;;13.00;;
84897;SDS011;75162;42.120;21.734;2024-02-21T08:51:29;24.80;;;14.43;;
84897;SDS011;75162;42.120;21.734;2024-02-21T08:53:56;18.40;;;10.90;;
84897;SDS011;75162;42.120;21.734;2024-02-21T08:56:23;18.67;;;11.35;;
84897;SDS011;75162;42.120;21.734;2024-02-21T08:58:49;23.08;;;12.98;;
84897;SDS011;75162;42.120;21.734;2024-02-21T09:01:15;31.20;;;18.67;;
84897;SDS011;75162;42.120;21.734;2024-02-21T09:03:41;20.48;;;12.45;;
84897;SDS011;75162;42.120;21.734;2024-02-21T09:06:10;23.17;;;12.35;;
84897;SDS011;75162;42.120;21.734;2024-02-21T09:08:38;20.17;;;11.88;;
84897;SDS011;75162;42.120;21.734;2024-02-21T09:11:05;23.95;;;12.88;;
84897;SDS011;75162;42.120;21.734;2024-02-21T09:13:32;20.92;;;11.70;;
84897;SDS011;75162;42.120;21.734;2024-02-21T09:15:58;22.77;;;11.55;;
84897;SDS011;75162;42.120;21.734;2024-02-21T09:18:24;27.25;;;14.68;;
84897;SDS011;75162;42.120;21.734;2024-02-21T09:20:50;26.85;;;16.05;;
84897;SDS011;75162;42.120;21.734;2024-02-21T09:23:19;21.38;;;12.10;;
84897;SDS011;75162;42.120;21.734;2024-02-21T09:25:48;13.75;;;8.68;;
84897;SDS011;75162;42.120;21.734;2024-02-21T09:28:21;17.90;;;10.15;;
84897;SDS011;75162;42.120;21.734;2024-02-21T09:30:47;13.30;;;9.48;;
84897;SDS011;75162;42.120;21.734;2024-02-21T09:33:13;16.80;;;9.90;;
84897;SDS011;75162;42.120;21.734;2024-02-21T09:35:40;15.40;;;8.45;;
84897;SDS011;75162;42.120;21.734;2024-02-21T09:38:06;10.02;;;6.85;;
84897;SDS011;75162;42.120;21.734;2024-02-21T09:40:32;12.48;;;8.02;;
84897;SDS011;75162;42.120;21.734;2024-02-21T09:45:31;10.70;;;7.22;;
84897;SDS011;75162;42.120;21.734;2024-02-21T09:50:24;16.95;;;9.05;;
84897;SDS011;75162;42.120;21.734;2024-02-21T09:52:50;12.43;;;7.80;;
84897;SDS011;75162;42.120;21.734;2024-02-21T09:55:17;16.23;;;9.20;;
84897;SDS011;75162;42.120;21.734;2024-02-21T09:57:44;16.67;;;9.43;;
84897;SDS011;75162;42.120;21.734;2024-02-21T10:00:10;10.23;;;6.90;;
84897;SDS011;75162;42.120;21.734;2024-02-21T10:02:38;12.23;;;7.47;;
84897;SDS011;75162;42.120;21.734;2024-02-21T10:05:05;15.55;;;7.85;;
84897;SDS011;75162;42.120;21.734;2024-02-21T10:07:33;12.30;;;8.05;;
84897;SDS011;75162;42.120;21.734;2024-02-21T10:10:02;9.75;;;6.45;;
84897;SDS011;75162;42.120;21.734;2024-02-21T10:12:29;16.35;;;9.82;;
84897;SDS011;75162;42.120;21.734;2024-02-21T10:15:02;13.27;;;7.30;;
84897;SDS011;75162;42.120;21.734;2024-02-21T10:17:28;14.23;;;7.90;;
84897;SDS011;75162;42.120;21.734;2024-02-21T10:19:54;10.52;;;6.43;;
84897;SDS011;75162;42.120;21.734;2024-02-21T10:22:20;10.48;;;6.82;;
84897;SDS011;75162;42.120;21.734;2024-02-21T10:24:47;12.07;;;6.65;;
84897;SDS011;75162;42.120;21.734;2024-02-21T10:27:13;10.48;;;7.35;;
84897;SDS011;75162;42.120;21.734;2024-02-21T10:29:39;10.25;;;5.22;;
84897;SDS011;75162;42.120;21.734;2024-02-21T10:32:13;9.60;;;5.43;;
84897;SDS011;75162;42.120;21.734;2024-02-21T10:34:39;18.52;;;9.07;;
84897;SDS011;75162;42.120;21.734;2024-02-21T10:37:06;15.50;;;8.23;;
84897;SDS011;75162;42.120;21.734;2024-02-21T10:39:39;5.47;;;3.25;;
84897;SDS011;75162;42.120;21.734;2024-02-21T10:42:05;6.72;;;4.43;;
84897;SDS011;75162;42.120;21.734;2024-02-21T10:44:33;8.13;;;5.38;;
84897;SDS011;75162;42.120;21.734;2024-02-21T10:47:00;10.18;;;5.35;;
84897;SDS011;75162;42.120;21.734;2024-02-21T10:49:29;8.70;;;4.95;;
84897;SDS011;75162;42.120;21.734;2024-02-21T10:52:17;7.15;;;5.55;;
84897;SDS011;75162;42.120;21.734;2024-02-21T10:54:51;11.93;;;6.35;;
84897;SDS011;75162;42.120;21.734;2024-02-21T10:57:21;8.68;;;5.30;;
84897;SDS011;75162;42.120;21.734;2024-02-21T10:59:47;8.20;;;5.35;;
84897;SDS011;75162;42.120;21.734;2024-02-21T11:02:14;8.00;;;5.18;;
84897;SDS011;75162;42.120;21.734;2024-02-21T11:04:40;8.48;;;4.97;;
84897;SDS011;75162;42.120;21.734;2024-02-21T11:07:07;9.57;;;5.38;;
84897;SDS011;75162;42.120;21.734;2024-02-21T11:09:34;11.93;;;5.70;;
84897;SDS011;75162;42.120;21.734;2024-02-21T11:12:06;8.43;;;5.43;;
84897;SDS011;75162;42.120;21.734;2024-02-21T11:14:33;8.25;;;5.65;;
84897;SDS011;75162;42.120;21.734;2024-02-21T11:19:30;10.98;;;5.63;;
84897;SDS011;75162;42.120;21.734;2024-02-21T11:21:56;10.55;;;4.60;;
84897;SDS011;75162;42.120;21.734;2024-02-21T11:24:30;6.82;;;4.07;;
84897;SDS011;75162;42.120;21.734;2024-02-21T11:26:56;6.18;;;4.00;;
84897;SDS011;75162;42.120;21.734;2024-02-21T11:29:26;7.10;;;3.92;;
84897;SDS011;75162;42.120;21.734;2024-02-21T11:31:53;8.38;;;4.53;;
84897;SDS011;75162;42.120;21.734;2024-02-21T11:34:20;9.32;;;4.68;;
84897;SDS011;75162;42.120;21.734;2024-02-21T11:36:47;7.40;;;4.00;;
84897;SDS011;75162;42.120;21.734;2024-02-21T11:39:24;5.95;;;3.60;;
84897;SDS011;75162;42.120;21.734;2024-02-21T11:42:00;6.53;;;3.65;;
84897;SDS011;75162;42.120;21.734;2024-02-21T11:44:26;8.98;;;3.80;;
84897;SDS011;75162;42.120;21.734;2024-02-21T11:46:53;8.05;;;4.57;;
84897;SDS011;75162;42.120;21.734;2024-02-21T11:49:24;7.43;;;5.03;;
84897;SDS011;75162;42.120;21.734;2024-02-21T11:51:57;7.50;;;4.82;;
84897;SDS011;75162;42.120;21.734;2024-02-21T11:54:24;13.52;;;6.20;;
84897;SDS011;75162;42.120;21.734;2024-02-21T11:56:50;11.05;;;6.80;;
84897;SDS011;75162;42.120;21.734;2024-02-21T11:59:16;14.35;;;8.85;;
84897;SDS011;75162;42.120;21.734;2024-02-21T12:01:42;25.50;;;13.88;;
84897;SDS011;75162;42.120;21.734;2024-02-21T12:04:08;8.23;;;5.30;;
84897;SDS011;75162;42.120;21.734;2024-02-21T12:06:34;6.43;;;4.32;;
84897;SDS011;75162;42.120;21.734;2024-02-21T12:09:00;10.90;;;5.15;;
84897;SDS011;75162;42.120;21.734;2024-02-21T12:11:27;14.02;;;6.80;;
84897;SDS011;75162;42.120;21.734;2024-02-21T12:14:02;11.65;;;5.70;;
84897;SDS011;75162;42.120;21.734;2024-02-21T12:16:30;27.98;;;15.75;;
84897;SDS011;75162;42.120;21.734;2024-02-21T12:18:57;14.40;;;7.85;;
84897;SDS011;75162;42.120;21.734;2024-02-21T12:21:24;11.65;;;6.40;;
84897;SDS011;75162;42.120;21.734;2024-02-21T12:23:51;13.55;;;7.47;;
84897;SDS011;75162;42.120;21.734;2024-02-21T12:26:17;16.60;;;7.28;;
84897;SDS011;75162;42.120;21.734;2024-02-21T12:28:43;8.35;;;4.10;;
84897;SDS011;75162;42.120;21.734;2024-02-21T12:31:10;9.13;;;5.50;;
84897;SDS011;75162;42.120;21.734;2024-02-21T12:33:36;12.43;;;7.07;;
84897;SDS011;75162;42.120;21.734;2024-02-21T12:36:02;10.88;;;6.22;;
84897;SDS011;75162;42.120;21.734;2024-02-21T12:38:29;9.27;;;4.10;;
84897;SDS011;75162;42.120;21.734;2024-02-21T12:40:55;9.75;;;4.60;;
84897;SDS011;75162;42.120;21.734;2024-02-21T12:43:22;10.68;;;5.63;;
84897;SDS011;75162;42.120;21.734;2024-02-21T12:45:48;7.88;;;4.45;;
84897;SDS011;75162;42.120;21.734;2024-02-21T12:48:15;8.35;;;4.68;;
84897;SDS011;75162;42.120;21.734;2024-02-21T12:50:43;6.57;;;3.90;;
84897;SDS011;75162;42.120;21.734;2024-02-21T12:53:13;15.15;;;6.93;;
84897;SDS011;75162;42.120;21.734;2024-02-21T12:55:40;10.95;;;5.22;;
84897;SDS011;75162;42.120;21.734;2024-02-21T12:58:07;10.52;;;4.80;;
84897;SDS011;75162;42.120;21.734;2024-02-21T13:00:34;9.52;;;4.25;;
84897;SDS011;75162;42.120;21.734;2024-02-21T13:03:01;9.77;;;4.35;;
84897;SDS011;75162;42.120;21.734;2024-02-21T13:05:27;8.07;;;4.40;;
84897;SDS011;75162;42.120;21.734;2024-02-21T13:07:54;8.27;;;4.93;;
84897;SDS011;75162;42.120;21.734;2024-02-21T13:10:20;9.70;;;5.00;;
84897;SDS011;75162;42.120;21.734;2024-02-21T13:12:47;12.60;;;7.90;;
84897;SDS011;75162;42.120;21.734;2024-02-21T13:15:13;12.00;;;6.15;;
84897;SDS011;75162;42.120;21.734;2024-02-21T13:17:41;8.48;;;4.53;;
84897;SDS011;75162;42.120;21.734;2024-02-21T13:20:07;7.50;;;4.75;;
84897;SDS011;75162;42.120;21.734;2024-02-21T13:22:33;8.45;;;4.88;;
84897;SDS011;75162;42.120;21.734;2024-02-21T13:25:00;10.55;;;5.50;;
84897;SDS011;75162;42.120;21.734;2024-02-21T13:27:26;17.10;;;7.68;;
84897;SDS011;75162;42.120;21.734;2024-02-21T13:29:52;12.60;;;6.13;;
84897;SDS011;75162;42.120;21.734;2024-02-21T13:32:18;10.93;;;6.13;;
84897;SDS011;75162;42.120;21.734;2024-02-21T13:34:45;7.82;;;5.22;;
84897;SDS011;75162;42.120;21.734;2024-02-21T13:37:11;12.75;;;6.07;;
84897;SDS011;75162;42.120;21.734;2024-02-21T13:39:38;8.98;;;6.20;;
84897;SDS011;75162;42.120;21.734;2024-02-21T13:42:07;8.07;;;4.65;;
84897;SDS011;75162;42.120;21.734;2024-02-21T13:44:33;9.27;;;4.80;;
84897;SDS011;75162;42.120;21.734;2024-02-21T13:46:59;15.68;;;7.05;;
84897;SDS011;75162;42.120;21.734;2024-02-21T13:49:25;7.97;;;4.88;;
84897;SDS011;75162;42.120;21.734;2024-02-21T13:51:52;31.80;;;20.27;;
84897;SDS011;75162;42.120;21.734;2024-02-21T13:54:18;14.82;;;7.97;;
84897;SDS011;75162;42.120;21.734;2024-02-21T13:56:44;13.02;;;6.57;;
84897;SDS011;75162;42.120;21.734;2024-02-21T13:59:15;13.02;;;7.63;;
84897;SDS011;75162;42.120;21.734;2024-02-21T14:01:41;15.23;;;8.45;;
84897;SDS011;75162;42.120;21.734;2024-02-21T14:04:08;14.45;;;6.80;;
84897;SDS011;75162;42.120;21.734;2024-02-21T14:06:34;12.18;;;8.15;;
84897;SDS011;75162;42.120;21.734;2024-02-21T14:09:00;13.23;;;7.45;;
84897;SDS011;75162;42.120;21.734;2024-02-21T14:11:28;16.05;;;8.63;;
84897;SDS011;75162;42.120;21.734;2024-02-21T14:13:55;9.82;;;6.03;;
84897;SDS011;75162;42.120;21.734;2024-02-21T14:16:22;14.85;;;6.38;;
84897;SDS011;75162;42.120;21.734;2024-02-21T14:18:48;10.02;;;6.55;;
84897;SDS011;75162;42.120;21.734;2024-02-21T14:21:15;7.65;;;5.00;;
84897;SDS011;75162;42.120;21.734;2024-02-21T14:23:41;13.40;;;7.22;;